sensor_id;sensor_type;location;lat;lon;timestamp;P1;durP1;ratioP1;P2;durP2;ratioP2
51288;SDS011;37372;52.294;5.152;2022-12-11T00:01:53;102.13;;;29.30;;
51288;SDS011;37372;52.294;5.152;2022-12-11T00:04:18;90.07;;;28.60;;
51288;SDS011;37372;52.294;5.152;2022-12-11T00:06:43;90.03;;;31.67;;
51288;SDS011;37372;52.294;5.152;2022-12-11T00:09:09;86.80;;;29.77;;
51288;SDS011;37372;52.294;5.152;2022-12-11T00:11:35;92.50;;;30.35;;
51288;SDS011;37372;52.294;5.152;2022-12-11T00:14:01;86.13;;;30.98;;
51288;SDS011;37372;52.294;5.152;2022-12-11T00:16:26;81.03;;;30.02;;
51288;SDS011;37372;52.294;5.152;2022-12-11T00:18:52;88.90;;;30.17;;
51288;SDS011;37372;52.294;5.152;2022-12-11T00:21:18;86.20;;;29.50;;
51288;SDS011;37372;52.294;5.152;2022-12-11T00:23:43;88.32;;;32.00;;
51288;SDS011;37372;52.294;5.152;2022-12-11T00:26:11;84.07;;;30.17;;
51288;SDS011;37372;52.294;5.152;2022-12-11T00:28:38;82.72;;;31.05;;
51288;SDS011;37372;52.294;5.152;2022-12-11T00:31:04;84.25;;;29.92;;
51288;SDS011;37372;52.294;5.152;2022-12-11T00:33:31;94.75;;;30.20;;
51288;SDS011;37372;52.294;5.152;2022-12-11T00:35:57;80.35;;;30.27;;
51288;SDS011;37372;52.294;5.152;2022-12-11T00:38:23;86.97;;;30.67;;
51288;SDS011;37372;52.294;5.152;2022-12-11T00:40:48;94.30;;;33.90;;
51288;SDS011;37372;52.294;5.152;2022-12-11T00:43:14;85.43;;;31.35;;
51288;SDS011;37372;52.294;5.152;2022-12-11T00:45:41;76.80;;;28.75;;
51288;SDS011;37372;52.294;5.152;2022-12-11T00:48:07;81.45;;;27.92;;
51288;SDS011;37372;52.294;5.152;2022-12-11T00:50:34;81.80;;;29.10;;
51288;SDS011;37372;52.294;5.152;2022-12-11T00:53:00;79.90;;;29.33;;
51288;SDS011;37372;52.294;5.152;2022-12-11T00:55:26;79.28;;;29.20;;
51288;SDS011;37372;52.294;5.152;2022-12-11T00:57:55;76.68;;;29.13;;
51288;SDS011;37372;52.294;5.152;2022-12-11T01:00:22;79.07;;;28.48;;
51288;SDS011;37372;52.294;5.152;2022-12-11T01:02:48;79.97;;;28.75;;
51288;SDS011;37372;52.294;5.152;2022-12-11T01:05:14;80.30;;;29.77;;
51288;SDS011;37372;52.294;5.152;2022-12-11T01:07:40;80.30;;;30.90;;
51288;SDS011;37372;52.294;5.152;2022-12-11T01:10:05;77.47;;;28.60;;
51288;SDS011;37372;52.294;5.152;2022-12-11T01:12:50;75.25;;;27.15;;
51288;SDS011;37372;52.294;5.152;2022-12-11T01:15:17;65.50;;;27.80;;
51288;SDS011;37372;52.294;5.152;2022-12-11T01:17:44;66.97;;;27.25;;
51288;SDS011;37372;52.294;5.152;2022-12-11T01:20:10;67.43;;;27.92;;
51288;SDS011;37372;52.294;5.152;2022-12-11T01:22:36;84.95;;;28.30;;
51288;SDS011;37372;52.294;5.152;2022-12-11T01:25:01;70.10;;;26.48;;
51288;SDS011;37372;52.294;5.152;2022-12-11T01:27:27;75.72;;;28.98;;
51288;SDS011;37372;52.294;5.152;2022-12-11T01:29:52;66.30;;;27.02;;
51288;SDS011;37372;52.294;5.152;2022-12-11T01:32:17;80.53;;;28.13;;
51288;SDS011;37372;52.294;5.152;2022-12-11T01:34:43;70.00;;;27.63;;
51288;SDS011;37372;52.294;5.152;2022-12-11T01:37:08;66.47;;;26.50;;
51288;SDS011;37372;52.294;5.152;2022-12-11T01:39:34;70.95;;;28.63;;
51288;SDS011;37372;52.294;5.152;2022-12-11T01:42:00;62.15;;;26.23;;
51288;SDS011;37372;52.294;5.152;2022-12-11T01:46:51;64.72;;;26.42;;
51288;SDS011;37372;52.294;5.152;2022-12-11T01:49:17;80.85;;;31.02;;
51288;SDS011;37372;52.294;5.152;2022-12-11T01:54:48;71.32;;;28.92;;
51288;SDS011;37372;52.294;5.152;2022-12-11T01:57:15;68.75;;;27.45;;
51288;SDS011;37372;52.294;5.152;2022-12-11T01:59:42;65.43;;;27.75;;
51288;SDS011;37372;52.294;5.152;2022-12-11T02:02:18;71.30;;;28.30;;
51288;SDS011;37372;52.294;5.152;2022-12-11T02:04:45;72.97;;;26.95;;
51288;SDS011;37372;52.294;5.152;2022-12-11T02:07:11;68.28;;;29.48;;
51288;SDS011;37372;52.294;5.152;2022-12-11T02:09:37;72.70;;;29.95;;
51288;SDS011;37372;52.294;5.152;2022-12-11T02:17:43;60.38;;;27.33;;
51288;SDS011;37372;52.294;5.152;2022-12-11T02:22:57;60.67;;;27.20;;
51288;SDS011;37372;52.294;5.152;2022-12-11T02:31:23;55.45;;;24.98;;
51288;SDS011;37372;52.294;5.152;2022-12-11T02:36:41;60.85;;;26.23;;
51288;SDS011;37372;52.294;5.152;2022-12-11T02:39:11;62.28;;;27.50;;
51288;SDS011;37372;52.294;5.152;2022-12-11T02:41:48;63.00;;;27.17;;
51288;SDS011;37372;52.294;5.152;2022-12-11T02:44:15;55.67;;;25.58;;
51288;SDS011;37372;52.294;5.152;2022-12-11T02:46:44;67.85;;;26.85;;
51288;SDS011;37372;52.294;5.152;2022-12-11T02:49:10;59.42;;;25.55;;
51288;SDS011;37372;52.294;5.152;2022-12-11T02:51:38;56.92;;;26.08;;
51288;SDS011;37372;52.294;5.152;2022-12-11T02:54:07;66.88;;;28.35;;
51288;SDS011;37372;52.294;5.152;2022-12-11T02:56:44;63.35;;;26.80;;
51288;SDS011;37372;52.294;5.152;2022-12-11T02:59:16;56.78;;;25.65;;
51288;SDS011;37372;52.294;5.152;2022-12-11T03:01:45;59.38;;;25.17;;
51288;SDS011;37372;52.294;5.152;2022-12-11T03:04:11;60.88;;;26.45;;
51288;SDS011;37372;52.294;5.152;2022-12-11T03:06:41;57.47;;;24.67;;
51288;SDS011;37372;52.294;5.152;2022-12-11T03:09:10;57.05;;;26.25;;
51288;SDS011;37372;52.294;5.152;2022-12-11T03:11:36;49.97;;;24.58;;
51288;SDS011;37372;52.294;5.152;2022-12-11T03:14:01;49.60;;;24.65;;
51288;SDS011;37372;52.294;5.152;2022-12-11T03:16:34;55.40;;;25.42;;
51288;SDS011;37372;52.294;5.152;2022-12-11T03:21:39;50.40;;;24.30;;
51288;SDS011;37372;52.294;5.152;2022-12-11T03:24:21;53.70;;;25.05;;
51288;SDS011;37372;52.294;5.152;2022-12-11T03:26:58;50.90;;;21.88;;
51288;SDS011;37372;52.294;5.152;2022-12-11T03:29:31;51.40;;;22.83;;
51288;SDS011;37372;52.294;5.152;2022-12-11T03:34:31;45.58;;;20.48;;
51288;SDS011;37372;52.294;5.152;2022-12-11T03:37:02;43.63;;;20.80;;
51288;SDS011;37372;52.294;5.152;2022-12-11T03:39:32;46.35;;;21.63;;
51288;SDS011;37372;52.294;5.152;2022-12-11T03:42:02;40.72;;;20.77;;
51288;SDS011;37372;52.294;5.152;2022-12-11T03:44:31;41.50;;;19.92;;
51288;SDS011;37372;52.294;5.152;2022-12-11T03:46:59;47.45;;;21.38;;
51288;SDS011;37372;52.294;5.152;2022-12-11T03:49:26;43.05;;;21.15;;
51288;SDS011;37372;52.294;5.152;2022-12-11T03:51:56;44.55;;;21.55;;
51288;SDS011;37372;52.294;5.152;2022-12-11T03:54:24;44.05;;;22.23;;
51288;SDS011;37372;52.294;5.152;2022-12-11T03:56:52;44.95;;;21.38;;
51288;SDS011;37372;52.294;5.152;2022-12-11T03:59:19;46.40;;;21.98;;
51288;SDS011;37372;52.294;5.152;2022-12-11T04:01:45;44.97;;;21.52;;
51288;SDS011;37372;52.294;5.152;2022-12-11T04:04:10;38.90;;;20.08;;
51288;SDS011;37372;52.294;5.152;2022-12-11T04:06:36;39.63;;;20.08;;
51288;SDS011;37372;52.294;5.152;2022-12-11T04:09:01;38.22;;;19.63;;
51288;SDS011;37372;52.294;5.152;2022-12-11T04:11:27;35.92;;;18.50;;
51288;SDS011;37372;52.294;5.152;2022-12-11T04:14:02;40.72;;;20.92;;
51288;SDS011;37372;52.294;5.152;2022-12-11T04:16:51;34.95;;;16.55;;
51288;SDS011;37372;52.294;5.152;2022-12-11T04:19:17;46.33;;;17.73;;
51288;SDS011;37372;52.294;5.152;2022-12-11T04:22:01;38.55;;;17.77;;
51288;SDS011;37372;52.294;5.152;2022-12-11T04:24:59;35.80;;;17.15;;
51288;SDS011;37372;52.294;5.152;2022-12-11T04:27:25;37.03;;;18.80;;
51288;SDS011;37372;52.294;5.152;2022-12-11T04:30:11;35.58;;;17.92;;
51288;SDS011;37372;52.294;5.152;2022-12-11T04:32:39;37.83;;;19.15;;
51288;SDS011;37372;52.294;5.152;2022-12-11T04:35:05;35.55;;;19.17;;
51288;SDS011;37372;52.294;5.152;2022-12-11T04:37:32;34.83;;;17.48;;
51288;SDS011;37372;52.294;5.152;2022-12-11T04:39:58;38.30;;;18.88;;
51288;SDS011;37372;52.294;5.152;2022-12-11T04:42:23;39.15;;;18.38;;
51288;SDS011;37372;52.294;5.152;2022-12-11T04:44:49;39.03;;;19.48;;
51288;SDS011;37372;52.294;5.152;2022-12-11T04:47:14;37.10;;;18.33;;
51288;SDS011;37372;52.294;5.152;2022-12-11T04:49:40;40.72;;;20.23;;
51288;SDS011;37372;52.294;5.152;2022-12-11T04:52:05;34.05;;;16.70;;
51288;SDS011;37372;52.294;5.152;2022-12-11T04:54:31;39.50;;;19.17;;
51288;SDS011;37372;52.294;5.152;2022-12-11T04:56:57;37.20;;;18.02;;
51288;SDS011;37372;52.294;5.152;2022-12-11T04:59:22;35.70;;;19.05;;
51288;SDS011;37372;52.294;5.152;2022-12-11T05:01:48;33.05;;;18.40;;
51288;SDS011;37372;52.294;5.152;2022-12-11T05:04:13;39.03;;;18.42;;
51288;SDS011;37372;52.294;5.152;2022-12-11T05:06:38;42.90;;;19.25;;
51288;SDS011;37372;52.294;5.152;2022-12-11T05:09:04;41.33;;;19.27;;
51288;SDS011;37372;52.294;5.152;2022-12-11T05:11:30;38.53;;;18.55;;
51288;SDS011;37372;52.294;5.152;2022-12-11T05:13:55;38.10;;;19.05;;
51288;SDS011;37372;52.294;5.152;2022-12-11T05:16:20;40.55;;;19.00;;
51288;SDS011;37372;52.294;5.152;2022-12-11T05:18:46;38.47;;;18.80;;
51288;SDS011;37372;52.294;5.152;2022-12-11T05:21:12;35.28;;;19.08;;
51288;SDS011;37372;52.294;5.152;2022-12-11T05:23:39;34.40;;;18.75;;
51288;SDS011;37372;52.294;5.152;2022-12-11T05:26:12;35.58;;;18.10;;
51288;SDS011;37372;52.294;5.152;2022-12-11T05:28:42;33.78;;;17.10;;
51288;SDS011;37372;52.294;5.152;2022-12-11T05:31:12;40.17;;;21.35;;
51288;SDS011;37372;52.294;5.152;2022-12-11T05:33:40;31.13;;;17.17;;
51288;SDS011;37372;52.294;5.152;2022-12-11T05:36:06;36.05;;;17.27;;
51288;SDS011;37372;52.294;5.152;2022-12-11T05:38:32;35.35;;;17.65;;
51288;SDS011;37372;52.294;5.152;2022-12-11T05:40:58;41.83;;;19.35;;
51288;SDS011;37372;52.294;5.152;2022-12-11T05:43:26;34.95;;;17.48;;
51288;SDS011;37372;52.294;5.152;2022-12-11T05:45:53;34.05;;;17.95;;
51288;SDS011;37372;52.294;5.152;2022-12-11T05:48:18;41.67;;;19.30;;
51288;SDS011;37372;52.294;5.152;2022-12-11T05:50:44;36.38;;;18.45;;
51288;SDS011;37372;52.294;5.152;2022-12-11T05:53:09;37.60;;;19.25;;
51288;SDS011;37372;52.294;5.152;2022-12-11T05:55:35;38.85;;;18.92;;
51288;SDS011;37372;52.294;5.152;2022-12-11T05:58:01;38.13;;;19.30;;
51288;SDS011;37372;52.294;5.152;2022-12-11T06:00:26;38.38;;;18.80;;
51288;SDS011;37372;52.294;5.152;2022-12-11T06:02:51;42.58;;;20.48;;
51288;SDS011;37372;52.294;5.152;2022-12-11T06:05:17;37.60;;;18.00;;
51288;SDS011;37372;52.294;5.152;2022-12-11T06:07:42;42.10;;;20.67;;
51288;SDS011;37372;52.294;5.152;2022-12-11T06:10:08;38.95;;;18.90;;
51288;SDS011;37372;52.294;5.152;2022-12-11T06:12:33;38.53;;;20.23;;
51288;SDS011;37372;52.294;5.152;2022-12-11T06:14:59;40.80;;;20.05;;
51288;SDS011;37372;52.294;5.152;2022-12-11T06:17:24;39.40;;;19.80;;
51288;SDS011;37372;52.294;5.152;2022-12-11T06:19:50;42.92;;;21.13;;
51288;SDS011;37372;52.294;5.152;2022-12-11T06:22:15;42.50;;;19.80;;
51288;SDS011;37372;52.294;5.152;2022-12-11T06:24:41;39.60;;;20.25;;
51288;SDS011;37372;52.294;5.152;2022-12-11T06:27:06;42.90;;;20.42;;
51288;SDS011;37372;52.294;5.152;2022-12-11T06:29:32;39.72;;;19.75;;
51288;SDS011;37372;52.294;5.152;2022-12-11T06:31:57;39.38;;;18.73;;
51288;SDS011;37372;52.294;5.152;2022-12-11T06:34:23;39.88;;;18.10;;
51288;SDS011;37372;52.294;5.152;2022-12-11T06:36:48;41.65;;;20.58;;
51288;SDS011;37372;52.294;5.152;2022-12-11T06:39:13;38.15;;;19.95;;
51288;SDS011;37372;52.294;5.152;2022-12-11T06:41:39;36.47;;;19.65;;
51288;SDS011;37372;52.294;5.152;2022-12-11T06:44:04;40.58;;;19.90;;
51288;SDS011;37372;52.294;5.152;2022-12-11T06:46:29;40.03;;;20.48;;
51288;SDS011;37372;52.294;5.152;2022-12-11T06:48:55;42.47;;;22.15;;
51288;SDS011;37372;52.294;5.152;2022-12-11T06:51:21;37.88;;;20.17;;
51288;SDS011;37372;52.294;5.152;2022-12-11T06:53:54;38.78;;;19.50;;
51288;SDS011;37372;52.294;5.152;2022-12-11T06:56:20;40.10;;;20.17;;
51288;SDS011;37372;52.294;5.152;2022-12-11T06:58:47;38.33;;;18.67;;
51288;SDS011;37372;52.294;5.152;2022-12-11T07:01:13;38.10;;;20.05;;
51288;SDS011;37372;52.294;5.152;2022-12-11T07:03:51;37.40;;;18.33;;
51288;SDS011;37372;52.294;5.152;2022-12-11T07:06:17;33.92;;;18.00;;
51288;SDS011;37372;52.294;5.152;2022-12-11T07:08:42;42.85;;;21.25;;
51288;SDS011;37372;52.294;5.152;2022-12-11T07:11:12;42.97;;;21.45;;
51288;SDS011;37372;52.294;5.152;2022-12-11T07:13:39;39.08;;;19.58;;
51288;SDS011;37372;52.294;5.152;2022-12-11T07:16:06;39.60;;;20.13;;
51288;SDS011;37372;52.294;5.152;2022-12-11T07:18:34;36.13;;;18.85;;
51288;SDS011;37372;52.294;5.152;2022-12-11T07:21:02;40.00;;;18.98;;
51288;SDS011;37372;52.294;5.152;2022-12-11T07:23:28;38.10;;;19.25;;
51288;SDS011;37372;52.294;5.152;2022-12-11T07:25:54;35.10;;;17.70;;
51288;SDS011;37372;52.294;5.152;2022-12-11T07:28:20;38.63;;;19.50;;
51288;SDS011;37372;52.294;5.152;2022-12-11T07:30:45;37.35;;;18.85;;
51288;SDS011;37372;52.294;5.152;2022-12-11T07:33:11;37.97;;;17.60;;
51288;SDS011;37372;52.294;5.152;2022-12-11T07:35:36;36.38;;;17.58;;
51288;SDS011;37372;52.294;5.152;2022-12-11T07:38:02;38.38;;;19.00;;
51288;SDS011;37372;52.294;5.152;2022-12-11T07:40:27;37.13;;;17.45;;
51288;SDS011;37372;52.294;5.152;2022-12-11T07:42:53;35.33;;;17.92;;
51288;SDS011;37372;52.294;5.152;2022-12-11T07:45:18;36.75;;;17.63;;
51288;SDS011;37372;52.294;5.152;2022-12-11T07:47:43;32.78;;;16.83;;
51288;SDS011;37372;52.294;5.152;2022-12-11T07:50:09;31.70;;;16.85;;
51288;SDS011;37372;52.294;5.152;2022-12-11T07:52:34;34.70;;;18.50;;
51288;SDS011;37372;52.294;5.152;2022-12-11T07:54:59;39.28;;;20.00;;
51288;SDS011;37372;52.294;5.152;2022-12-11T07:57:26;40.80;;;19.45;;
51288;SDS011;37372;52.294;5.152;2022-12-11T07:59:51;37.28;;;18.85;;
51288;SDS011;37372;52.294;5.152;2022-12-11T08:02:17;40.58;;;20.58;;
51288;SDS011;37372;52.294;5.152;2022-12-11T08:04:42;35.05;;;18.67;;
51288;SDS011;37372;52.294;5.152;2022-12-11T08:07:07;40.00;;;20.70;;
51288;SDS011;37372;52.294;5.152;2022-12-11T08:09:33;40.50;;;19.30;;
51288;SDS011;37372;52.294;5.152;2022-12-11T08:11:58;38.25;;;18.67;;
51288;SDS011;37372;52.294;5.152;2022-12-11T08:14:23;42.50;;;20.05;;
51288;SDS011;37372;52.294;5.152;2022-12-11T08:16:48;43.55;;;20.15;;
51288;SDS011;37372;52.294;5.152;2022-12-11T08:19:14;45.20;;;21.85;;
51288;SDS011;37372;52.294;5.152;2022-12-11T08:21:40;41.95;;;20.40;;
51288;SDS011;37372;52.294;5.152;2022-12-11T08:24:05;38.08;;;18.23;;
51288;SDS011;37372;52.294;5.152;2022-12-11T08:26:43;37.30;;;17.02;;
51288;SDS011;37372;52.294;5.152;2022-12-11T08:29:08;38.00;;;18.55;;
51288;SDS011;37372;52.294;5.152;2022-12-11T08:31:34;43.38;;;20.75;;
51288;SDS011;37372;52.294;5.152;2022-12-11T08:33:59;44.25;;;20.90;;
51288;SDS011;37372;52.294;5.152;2022-12-11T08:36:24;41.05;;;19.25;;
51288;SDS011;37372;52.294;5.152;2022-12-11T08:38:50;42.20;;;19.33;;
51288;SDS011;37372;52.294;5.152;2022-12-11T08:41:23;39.03;;;19.75;;
51288;SDS011;37372;52.294;5.152;2022-12-11T08:43:50;40.38;;;20.60;;
51288;SDS011;37372;52.294;5.152;2022-12-11T08:46:23;37.83;;;19.50;;
51288;SDS011;37372;52.294;5.152;2022-12-11T08:48:50;42.35;;;20.60;;
51288;SDS011;37372;52.294;5.152;2022-12-11T08:51:18;35.35;;;18.45;;
51288;SDS011;37372;52.294;5.152;2022-12-11T08:53:46;37.10;;;18.85;;
51288;SDS011;37372;52.294;5.152;2022-12-11T08:56:13;39.53;;;20.23;;
51288;SDS011;37372;52.294;5.152;2022-12-11T08:58:42;41.03;;;20.70;;
51288;SDS011;37372;52.294;5.152;2022-12-11T09:03:56;44.35;;;20.25;;
51288;SDS011;37372;52.294;5.152;2022-12-11T09:06:23;39.10;;;20.13;;
51288;SDS011;37372;52.294;5.152;2022-12-11T09:08:51;40.80;;;20.40;;
51288;SDS011;37372;52.294;5.152;2022-12-11T09:11:18;38.10;;;20.25;;
51288;SDS011;37372;52.294;5.152;2022-12-11T09:13:48;40.95;;;19.83;;
51288;SDS011;37372;52.294;5.152;2022-12-11T09:16:15;38.05;;;20.77;;
51288;SDS011;37372;52.294;5.152;2022-12-11T09:18:44;41.67;;;21.67;;
51288;SDS011;37372;52.294;5.152;2022-12-11T09:21:14;41.25;;;21.92;;
51288;SDS011;37372;52.294;5.152;2022-12-11T09:23:44;40.72;;;21.20;;
51288;SDS011;37372;52.294;5.152;2022-12-11T09:26:10;40.08;;;21.55;;
51288;SDS011;37372;52.294;5.152;2022-12-11T09:28:38;43.78;;;22.40;;
51288;SDS011;37372;52.294;5.152;2022-12-11T09:31:10;37.70;;;19.08;;
51288;SDS011;37372;52.294;5.152;2022-12-11T09:33:38;40.65;;;21.92;;
51288;SDS011;37372;52.294;5.152;2022-12-11T09:36:04;41.38;;;22.05;;
51288;SDS011;37372;52.294;5.152;2022-12-11T09:38:30;35.47;;;19.45;;
51288;SDS011;37372;52.294;5.152;2022-12-11T09:40:57;38.72;;;18.65;;
51288;SDS011;37372;52.294;5.152;2022-12-11T09:43:30;37.80;;;19.02;;
51288;SDS011;37372;52.294;5.152;2022-12-11T09:46:03;37.97;;;19.33;;
51288;SDS011;37372;52.294;5.152;2022-12-11T09:48:33;37.67;;;18.75;;
51288;SDS011;37372;52.294;5.152;2022-12-11T09:51:00;38.88;;;21.00;;
51288;SDS011;37372;52.294;5.152;2022-12-11T09:53:30;41.08;;;20.35;;
51288;SDS011;37372;52.294;5.152;2022-12-11T09:58:34;40.40;;;19.27;;
51288;SDS011;37372;52.294;5.152;2022-12-11T10:01:25;35.55;;;18.45;;
51288;SDS011;37372;52.294;5.152;2022-12-11T10:07:05;43.88;;;19.70;;
51288;SDS011;37372;52.294;5.152;2022-12-11T10:17:59;36.33;;;19.35;;
51288;SDS011;37372;52.294;5.152;2022-12-11T10:20:34;32.67;;;18.45;;
51288;SDS011;37372;52.294;5.152;2022-12-11T10:23:04;33.92;;;19.13;;
51288;SDS011;37372;52.294;5.152;2022-12-11T10:25:36;37.08;;;18.60;;
51288;SDS011;37372;52.294;5.152;2022-12-11T10:28:12;37.92;;;19.60;;
51288;SDS011;37372;52.294;5.152;2022-12-11T10:30:47;36.80;;;19.63;;
51288;SDS011;37372;52.294;5.152;2022-12-11T10:33:20;38.08;;;19.42;;
51288;SDS011;37372;52.294;5.152;2022-12-11T10:35:52;39.60;;;22.05;;
51288;SDS011;37372;52.294;5.152;2022-12-11T10:38:35;38.58;;;20.05;;
51288;SDS011;37372;52.294;5.152;2022-12-11T10:41:05;37.60;;;20.23;;
51288;SDS011;37372;52.294;5.152;2022-12-11T10:43:42;42.90;;;20.92;;
51288;SDS011;37372;52.294;5.152;2022-12-11T10:46:19;37.55;;;19.88;;
51288;SDS011;37372;52.294;5.152;2022-12-11T10:48:46;36.95;;;20.13;;
51288;SDS011;37372;52.294;5.152;2022-12-11T10:51:17;38.88;;;20.83;;
51288;SDS011;37372;52.294;5.152;2022-12-11T10:53:48;37.55;;;20.85;;
51288;SDS011;37372;52.294;5.152;2022-12-11T10:56:14;38.63;;;21.95;;
51288;SDS011;37372;52.294;5.152;2022-12-11T10:58:48;35.97;;;19.08;;
51288;SDS011;37372;52.294;5.152;2022-12-11T11:01:15;36.85;;;20.73;;
51288;SDS011;37372;52.294;5.152;2022-12-11T11:07:02;41.78;;;20.65;;
51288;SDS011;37372;52.294;5.152;2022-12-11T11:09:39;35.30;;;19.73;;
51288;SDS011;37372;52.294;5.152;2022-12-11T11:12:26;38.60;;;19.52;;
51288;SDS011;37372;52.294;5.152;2022-12-11T11:15:01;36.88;;;19.35;;
51288;SDS011;37372;52.294;5.152;2022-12-11T11:17:31;44.00;;;22.77;;
51288;SDS011;37372;52.294;5.152;2022-12-11T11:20:03;42.03;;;20.42;;
51288;SDS011;37372;52.294;5.152;2022-12-11T11:22:40;34.97;;;19.70;;
51288;SDS011;37372;52.294;5.152;2022-12-11T11:25:20;39.28;;;22.55;;
51288;SDS011;37372;52.294;5.152;2022-12-11T11:27:48;37.80;;;20.95;;
51288;SDS011;37372;52.294;5.152;2022-12-11T11:30:18;44.72;;;22.50;;
51288;SDS011;37372;52.294;5.152;2022-12-11T11:32:45;39.83;;;20.02;;
51288;SDS011;37372;52.294;5.152;2022-12-11T11:37:37;40.83;;;21.40;;
51288;SDS011;37372;52.294;5.152;2022-12-11T11:40:12;37.75;;;21.55;;
51288;SDS011;37372;52.294;5.152;2022-12-11T11:45:33;40.08;;;20.80;;
51288;SDS011;37372;52.294;5.152;2022-12-11T11:48:11;38.75;;;20.67;;
51288;SDS011;37372;52.294;5.152;2022-12-11T11:50:44;40.20;;;21.13;;
51288;SDS011;37372;52.294;5.152;2022-12-11T11:53:30;40.40;;;20.95;;
51288;SDS011;37372;52.294;5.152;2022-12-11T12:01:39;41.28;;;20.85;;
51288;SDS011;37372;52.294;5.152;2022-12-11T12:04:05;36.72;;;20.27;;
51288;SDS011;37372;52.294;5.152;2022-12-11T12:11:39;35.65;;;19.33;;
51288;SDS011;37372;52.294;5.152;2022-12-11T12:27:36;38.30;;;19.92;;
51288;SDS011;37372;52.294;5.152;2022-12-11T12:30:15;41.60;;;20.88;;
51288;SDS011;37372;52.294;5.152;2022-12-11T12:38:02;39.05;;;19.15;;
51288;SDS011;37372;52.294;5.152;2022-12-11T12:46:27;32.75;;;18.63;;
51288;SDS011;37372;52.294;5.152;2022-12-11T12:49:24;35.90;;;18.75;;
51288;SDS011;37372;52.294;5.152;2022-12-11T12:51:51;39.03;;;18.02;;
51288;SDS011;37372;52.294;5.152;2022-12-11T12:54:17;35.28;;;18.25;;
51288;SDS011;37372;52.294;5.152;2022-12-11T12:56:44;36.08;;;19.25;;
51288;SDS011;37372;52.294;5.152;2022-12-11T12:59:18;35.35;;;18.67;;
51288;SDS011;37372;52.294;5.152;2022-12-11T13:01:45;30.75;;;16.90;;
51288;SDS011;37372;52.294;5.152;2022-12-11T13:04:25;32.63;;;17.83;;
51288;SDS011;37372;52.294;5.152;2022-12-11T13:06:55;34.83;;;18.23;;
51288;SDS011;37372;52.294;5.152;2022-12-11T13:09:21;31.42;;;16.55;;
51288;SDS011;37372;52.294;5.152;2022-12-11T13:11:52;39.85;;;17.92;;
51288;SDS011;37372;52.294;5.152;2022-12-11T13:14:24;35.25;;;18.13;;
51288;SDS011;37372;52.294;5.152;2022-12-11T13:17:03;35.33;;;19.77;;
51288;SDS011;37372;52.294;5.152;2022-12-11T13:19:31;31.55;;;16.48;;
51288;SDS011;37372;52.294;5.152;2022-12-11T13:24:43;32.78;;;15.20;;
51288;SDS011;37372;52.294;5.152;2022-12-11T13:27:21;32.25;;;16.63;;
51288;SDS011;37372;52.294;5.152;2022-12-11T13:29:49;31.10;;;15.73;;
51288;SDS011;37372;52.294;5.152;2022-12-11T13:34:52;33.42;;;16.50;;
51288;SDS011;37372;52.294;5.152;2022-12-11T13:37:31;36.13;;;19.17;;
51288;SDS011;37372;52.294;5.152;2022-12-11T13:40:00;31.15;;;16.63;;
51288;SDS011;37372;52.294;5.152;2022-12-11T13:45:18;31.88;;;17.27;;
51288;SDS011;37372;52.294;5.152;2022-12-11T13:47:47;30.55;;;17.25;;
51288;SDS011;37372;52.294;5.152;2022-12-11T13:50:31;33.85;;;18.65;;
51288;SDS011;37372;52.294;5.152;2022-12-11T13:52:59;31.70;;;16.60;;
51288;SDS011;37372;52.294;5.152;2022-12-11T13:55:29;32.97;;;17.70;;
51288;SDS011;37372;52.294;5.152;2022-12-11T13:57:57;34.05;;;18.02;;
51288;SDS011;37372;52.294;5.152;2022-12-11T14:00:24;41.00;;;19.10;;
51288;SDS011;37372;52.294;5.152;2022-12-11T14:02:52;39.58;;;19.20;;
51288;SDS011;37372;52.294;5.152;2022-12-11T14:05:20;42.17;;;20.20;;
51288;SDS011;37372;52.294;5.152;2022-12-11T14:07:48;37.15;;;18.60;;
51288;SDS011;37372;52.294;5.152;2022-12-11T14:10:23;40.30;;;19.92;;
51288;SDS011;37372;52.294;5.152;2022-12-11T14:15:36;48.75;;;23.33;;
51288;SDS011;37372;52.294;5.152;2022-12-11T14:18:07;40.97;;;20.08;;
51288;SDS011;37372;52.294;5.152;2022-12-11T14:20:44;44.15;;;18.80;;
51288;SDS011;37372;52.294;5.152;2022-12-11T14:23:18;40.95;;;18.25;;
51288;SDS011;37372;52.294;5.152;2022-12-11T14:28:21;44.33;;;20.70;;
51288;SDS011;37372;52.294;5.152;2022-12-11T14:30:51;48.22;;;20.40;;
51288;SDS011;37372;52.294;5.152;2022-12-11T14:33:20;43.47;;;22.60;;
51288;SDS011;37372;52.294;5.152;2022-12-11T14:35:49;48.83;;;21.08;;
51288;SDS011;37372;52.294;5.152;2022-12-11T14:38:18;46.05;;;22.02;;
51288;SDS011;37372;52.294;5.152;2022-12-11T14:40:54;42.10;;;21.70;;
51288;SDS011;37372;52.294;5.152;2022-12-11T14:43:32;40.42;;;21.15;;
51288;SDS011;37372;52.294;5.152;2022-12-11T14:46:03;38.58;;;20.25;;
51288;SDS011;37372;52.294;5.152;2022-12-11T14:48:36;42.07;;;20.33;;
51288;SDS011;37372;52.294;5.152;2022-12-11T14:51:12;43.70;;;20.73;;
51288;SDS011;37372;52.294;5.152;2022-12-11T14:53:40;43.15;;;18.58;;
51288;SDS011;37372;52.294;5.152;2022-12-11T14:56:15;42.88;;;19.35;;
51288;SDS011;37372;52.294;5.152;2022-12-11T14:58:43;47.15;;;21.02;;
51288;SDS011;37372;52.294;5.152;2022-12-11T15:01:32;37.92;;;19.67;;
51288;SDS011;37372;52.294;5.152;2022-12-11T15:04:03;45.20;;;19.90;;
51288;SDS011;37372;52.294;5.152;2022-12-11T15:06:45;38.22;;;18.42;;
51288;SDS011;37372;52.294;5.152;2022-12-11T15:09:16;46.90;;;21.05;;
51288;SDS011;37372;52.294;5.152;2022-12-11T15:12:07;44.95;;;21.52;;
51288;SDS011;37372;52.294;5.152;2022-12-11T15:14:46;41.17;;;21.08;;
51288;SDS011;37372;52.294;5.152;2022-12-11T15:17:15;42.15;;;20.35;;
51288;SDS011;37372;52.294;5.152;2022-12-11T15:19:41;47.60;;;23.05;;
51288;SDS011;37372;52.294;5.152;2022-12-11T15:22:16;46.60;;;22.98;;
51288;SDS011;37372;52.294;5.152;2022-12-11T15:24:44;49.08;;;22.83;;
51288;SDS011;37372;52.294;5.152;2022-12-11T15:27:19;62.65;;;30.38;;
51288;SDS011;37372;52.294;5.152;2022-12-11T15:29:57;55.53;;;28.30;;
51288;SDS011;37372;52.294;5.152;2022-12-11T15:32:23;58.40;;;26.52;;
51288;SDS011;37372;52.294;5.152;2022-12-11T15:34:52;52.00;;;26.52;;
51288;SDS011;37372;52.294;5.152;2022-12-11T15:39:52;45.90;;;24.35;;
51288;SDS011;37372;52.294;5.152;2022-12-11T15:42:24;52.50;;;24.15;;
51288;SDS011;37372;52.294;5.152;2022-12-11T15:44:55;45.83;;;21.35;;
51288;SDS011;37372;52.294;5.152;2022-12-11T15:47:22;51.35;;;21.88;;
51288;SDS011;37372;52.294;5.152;2022-12-11T15:49:53;49.70;;;22.83;;
51288;SDS011;37372;52.294;5.152;2022-12-11T15:52:22;49.00;;;23.52;;
51288;SDS011;37372;52.294;5.152;2022-12-11T15:54:47;57.75;;;25.92;;
51288;SDS011;37372;52.294;5.152;2022-12-11T15:57:13;50.50;;;24.75;;
51288;SDS011;37372;52.294;5.152;2022-12-11T15:59:41;50.30;;;24.60;;
51288;SDS011;37372;52.294;5.152;2022-12-11T16:02:10;50.17;;;25.25;;
51288;SDS011;37372;52.294;5.152;2022-12-11T16:04:37;49.60;;;24.70;;
51288;SDS011;37372;52.294;5.152;2022-12-11T16:07:02;57.10;;;27.95;;
51288;SDS011;37372;52.294;5.152;2022-12-11T16:09:28;51.80;;;26.00;;
51288;SDS011;37372;52.294;5.152;2022-12-11T16:11:53;49.85;;;24.48;;
51288;SDS011;37372;52.294;5.152;2022-12-11T16:14:19;52.55;;;24.95;;
51288;SDS011;37372;52.294;5.152;2022-12-11T16:16:44;57.40;;;28.23;;